Date,TemperatureHighF,TemperatureAvgF,TemperatureLowF,DewpointHighF,DewpointAvgF,DewpointLowF,HumidityHigh,HumidityAvg,HumidityLow,PressureMaxIn,PressureMinIn,WindSpeedMaxMPH,WindSpeedAvgMPH,GustSpeedMaxMPH,PrecipitationSumIn
2013-9-1,81.6,71.9,65.8,74.1,69.4,65.8,100,92,74,29.90,29.75,8,1,8,0.00
2013-9-2,67.5,64.8,60.4,67.5,64.8,60.4,100,100,100,29.90,29.73,14,2,17,5.21
2013-9-3,76.7,68.9,63.6,72.0,67.7,63.6,100,96,82,29.77,29.69,9,1,9,0.02
2013-9-4,76.9,66.5,56.7,67.2,61.6,56.7,100,85,63,29.88,29.73,14,1,14,0.00
2013-9-5,64.4,58.0,47.8,61.1,54.0,45.5,100,87,60,30.13,29.84,16,3,16,0.01
2013-9-6,65.0,53.8,41.0,55.3,47.4,39.5,100,82,44,30.22,30.03,14,2,14,0.00
2013-9-7,69.9,60.3,49.8,62.8,56.4,49.7,100,88,60,30.03,29.78,16,1,16,0.00
2013-9-8,65.0,57.5,44.8,59.7,51.5,41.8,100,82,53,30.06,29.70,26,4,26,0.19
2013-9-9,64.2,53.3,41.0,55.4,48.7,40.7,100,86,59,30.20,30.06,18,3,18,0.00
2013-9-10,64.4,59.7,53.8,63.6,58.8,53.3,100,97,90,30.12,30.03,16,2,16,0.00
2013-9-11,80.2,69.2,60.8,74.9,67.4,60.8,100,94,79,30.04,29.88,28,1,28,0.99
2013-9-12,73.3,66.2,62.6,71.2,66.0,62.6,100,99,92,29.97,29.65,22,2,22,1.51
2013-9-13,70.2,63.1,55.9,69.4,63.0,55.9,100,100,91,29.70,29.57,16,2,16,0.84
2013-9-14,67.5,59.3,51.3,62.5,56.7,50.8,100,91,74,30.02,29.69,14,2,14,0.01
2013-9-15,64.4,55.6,46.3,57.0,52.5,46.1,100,90,64,30.13,29.99,13,2,13,0.00
2013-9-16,63.7,54.5,43.0,58.8,52.3,38.4,100,93,73,30.25,29.96,17,3,17,0.09
2013-9-17,62.6,49.5,35.9,50.6,43.3,35.9,100,81,52,30.40,30.25,18,4,18,0.00
2013-9-18,67.5,53.6,41.6,57.0,48.7,41.6,100,86,53,30.30,30.09,16,1,16,0.00
2013-9-19,70.9,56.3,45.2,59.4,51.6,45.2,100,86,55,30.12,30.02,9,1,9,0.01
2013-9-20,72.8,58.5,47.5,61.0,54.3,47.5,100,88,58,30.11,30.03,9,1,9,0.00
2013-9-21,64.8,59.8,55.1,63.0,59.3,55.1,100,98,93,30.03,29.76,14,2,14,0.01
2013-9-22,67.3,61.7,48.6,65.5,60.4,47.8,100,95,80,29.76,29.58,18,3,18,0.19
2013-9-23,55.7,48.9,40.9,48.0,43.6,40.9,100,83,65,29.94,29.75,26,5,26,0.00
2013-9-24,53.8,48.7,41.9,46.7,44.1,41.4,100,84,71,29.93,29.83,14,3,14,0.00
2013-9-25,60.7,52.2,42.3,52.1,47.1,42.3,100,84,65,29.97,29.86,21,4,21,0.00
2013-9-26,62.3,53.5,42.6,53.1,49.1,42.6,100,86,69,30.13,29.97,23,6,23,0.00
2013-9-27,66.7,58.0,50.1,57.4,53.4,50.1,100,86,67,30.24,30.12,14,3,14,0.00
2013-9-28,71.1,56.0,48.2,60.8,52.8,48.0,100,90,62,30.34,30.24,13,2,13,0.00
2013-9-29,63.6,52.0,45.1,57.8,50.5,45.1,100,95,71,30.27,30.13,8,0,8,0.01
2013-9-30,63.4,50.7,42.9,56.4,49.3,42.9,100,96,74,30.15,29.97,7,1,7,0.01